Time;durP1;ratioP1;P1;durP2;ratioP2;P2;SDS_P1;SDS_P2;PMS_P1;PMS_P2;Temp;Humidity;BMP_temperature;BMP_pressure;BME280_temperature;BME280_humidity;BME280_pressure;Samples;Min_cycle;Max_cycle;Signal;HPM_P1;HPM_P2
2021/07/08 00:00:41;;;;;;;3.22;3.00;;;17.60;99.90;;;18.31;95.26;98226.28;5182471;28;20202;-62
2021/07/08 00:03:15;;;;;;;3.55;3.25;;;17.60;99.90;;;18.22;95.97;98234.66;5185924;28;20204;-62
2021/07/08 00:05:49;;;;;;;3.83;3.20;;;17.50;99.90;;;18.24;95.79;98241.63;5185740;28;20194;-61
2021/07/08 00:08:22;;;;;;;3.08;2.88;;;17.50;99.90;;;18.20;95.90;98237.19;5186134;28;20309;-62
2021/07/08 00:10:56;;;;;;;2.85;2.65;;;17.50;99.90;;;18.18;96.41;98230.22;5186079;28;21555;-62
2021/07/08 00:13:30;;;;;;;3.38;3.08;;;17.40;99.90;;;18.21;96.33;98227.72;5185894;28;20197;-62
2021/07/08 00:16:04;;;;;;;3.50;2.97;;;17.40;99.90;;;18.23;96.15;98223.47;5183802;28;20198;-62
2021/07/08 00:18:38;;;;;;;3.53;2.97;;;17.40;99.90;;;18.21;95.82;98220.84;5177097;28;20226;-62
2021/07/08 00:21:12;;;;;;;3.22;3.03;;;17.40;99.90;;;18.23;96.19;98223.47;5185216;28;20273;-62
2021/07/08 00:23:45;;;;;;;3.10;2.90;;;17.40;99.90;;;18.23;96.26;98226.06;5185418;28;20195;-62
2021/07/08 00:26:18;;;;;;;3.13;2.60;;;17.40;99.90;;;18.25;95.71;98219.22;5184781;28;20195;-62
2021/07/08 00:28:51;;;;;;;2.78;2.65;;;17.40;99.90;;;18.23;95.85;98218.31;5184603;28;20237;-62
2021/07/08 00:31:24;;;;;;;3.08;2.80;;;17.40;99.90;;;18.17;95.54;98220.66;5185957;28;20702;-62
2021/07/08 00:34:01;;;;;;;3.30;3.00;;;17.40;99.90;;;18.11;95.48;98233.41;5185425;28;20573;-62
2021/07/08 00:36:34;;;;;;;3.38;2.80;;;17.30;99.90;;;18.13;95.83;98231.75;5176795;28;20209;-62
2021/07/08 00:39:07;;;;;;;3.80;2.90;;;17.30;99.90;;;18.15;95.54;98219.75;5184876;28;21914;-62
2021/07/08 00:41:40;;;;;;;3.70;2.92;;;17.30;99.90;;;18.14;95.72;98223.16;5185776;28;20191;-62
2021/07/08 00:44:13;;;;;;;3.75;2.72;;;17.30;99.90;;;18.15;95.73;98219.75;5184847;28;20198;-62
2021/07/08 00:46:46;;;;;;;3.22;2.92;;;17.30;99.90;;;18.12;95.05;98220.53;5183335;28;20205;-61
2021/07/08 00:49:20;;;;;;;4.72;2.72;;;17.30;99.90;;;18.05;95.08;98222.84;5179677;28;20241;-62
2021/07/08 00:51:53;;;;;;;3.10;2.90;;;17.20;99.90;;;17.98;95.34;98222.66;5185280;28;20218;-61
2021/07/08 00:54:26;;;;;;;3.30;2.97;;;17.20;99.90;;;17.95;95.64;98222.56;5185588;28;20213;-61
2021/07/08 00:57:00;;;;;;;4.18;3.40;;;17.20;99.90;;;17.81;96.07;98220.34;5184374;28;20677;-62
2021/07/08 00:59:33;;;;;;;3.95;3.47;;;17.10;99.90;;;17.78;96.78;98226.28;5181251;28;20728;-62
2021/07/08 01:02:06;;;;;;;3.67;3.38;;;17.10;99.90;;;17.73;97.25;98222.59;5184911;28;20845;-61
2021/07/08 01:04:41;;;;;;;3.40;3.17;;;17.10;99.90;;;17.65;97.13;98216.28;5180038;28;20583;-61
2021/07/08 01:07:17;;;;;;;3.75;3.55;;;17.00;99.90;;;17.59;97.98;98209.19;5183449;28;20202;-61
2021/07/08 01:09:52;;;;;;;3.65;3.35;;;17.00;99.90;;;17.51;98.16;98200.28;5184983;28;20228;-62
2021/07/08 01:12:25;;;;;;;5.50;3.80;;;16.90;99.90;;;17.49;98.40;98197.66;5177461;28;20213;-62
2021/07/08 01:14:58;;;;;;;3.40;3.20;;;16.90;99.90;;;17.49;99.10;98194.22;5184587;28;20195;-61
2021/07/08 01:17:31;;;;;;;4.03;3.70;;;16.90;99.90;;;17.53;99.32;98194.34;5183469;28;20205;-61
2021/07/08 01:20:08;;;;;;;3.78;3.40;;;16.90;99.90;;;17.55;99.61;98182.38;5184263;28;20314;-62
2021/07/08 01:22:42;;;;;;;3.58;3.38;;;17.00;99.90;;;17.58;99.78;98193.66;5184908;28;20208;-61
2021/07/08 01:25:18;;;;;;;5.18;3.50;;;17.00;99.90;;;17.62;100.00;98198.09;5184530;28;20202;-62
2021/07/08 01:27:53;;;;;;;3.60;3.40;;;17.00;99.90;;;17.63;100.00;98203.31;5183403;28;20208;-61
2021/07/08 01:30:27;;;;;;;4.32;3.70;;;17.00;99.90;;;17.65;100.00;98193.91;5184021;28;20198;-61
2021/07/08 01:33:01;;;;;;;3.97;3.67;;;17.00;99.90;;;17.65;99.90;98186.13;5184188;28;20595;-61
2021/07/08 01:35:34;;;;;;;3.85;3.55;;;17.00;99.90;;;17.62;99.88;98195.50;5182844;28;20208;-61
2021/07/08 01:38:08;;;;;;;3.75;3.45;;;17.00;99.90;;;17.62;100.00;98180.00;5183730;28;20566;-61
2021/07/08 01:40:41;;;;;;;3.95;3.65;;;17.00;99.90;;;17.60;100.00;98182.53;5183547;28;20198;-62
2021/07/08 01:43:14;;;;;;;3.80;3.50;;;17.00;99.90;;;17.59;99.88;98175.59;5184247;28;20195;-61
2021/07/08 01:45:48;;;;;;;4.03;3.50;;;16.90;99.90;;;17.59;99.55;98165.25;5184180;28;20209;-61
2021/07/08 01:48:21;;;;;;;4.43;4.03;;;17.00;99.90;;;17.50;98.78;98164.94;5183278;28;21464;-61
2021/07/08 01:50:54;;;;;;;3.28;3.08;;;16.90;99.90;;;17.50;99.32;98154.59;5178957;28;20209;-62
2021/07/08 01:53:29;;;;;;;3.88;3.58;;;16.90;99.90;;;17.47;99.69;98146.75;5183634;28;20221;-61
2021/07/08 01:56:02;;;;;;;3.75;3.55;;;16.80;99.90;;;17.52;99.65;98143.50;5182566;28;20194;-62
2021/07/08 01:58:35;;;;;;;4.70;3.58;;;16.90;99.90;;;17.55;99.91;98133.25;5183804;28;20238;-62
2021/07/08 02:01:08;;;;;;;3.88;3.58;;;16.90;99.90;;;17.48;99.62;98131.31;5184650;28;20197;-61
2021/07/08 02:03:42;;;;;;;4.30;4.00;;;16.80;99.90;;;17.45;100.00;98115.66;5183895;28;20306;-62
2021/07/08 02:06:15;;;;;;;4.43;4.03;;;16.80;99.90;;;17.39;100.00;98114.59;5183209;28;20738;-61
2021/07/08 02:08:50;;;;;;;4.22;3.92;;;16.80;99.90;;;17.36;99.59;98112.78;5178230;28;20270;-62
2021/07/08 02:11:24;;;;;;;4.75;4.32;;;16.70;99.90;;;17.31;100.00;98101.41;5184611;28;20589;-61
2021/07/08 02:13:57;;;;;;;4.20;3.75;;;16.70;99.90;;;17.33;99.73;98098.03;5184186;28;20218;-61
2021/07/08 02:16:30;;;;;;;5.05;4.57;;;16.70;99.90;;;17.30;99.27;98104.81;5178420;28;20202;-61
2021/07/08 02:19:06;;;;;;;5.30;4.53;;;16.70;99.90;;;17.18;100.00;98097.53;5183579;28;20315;-61
2021/07/08 02:21:39;;;;;;;4.15;3.70;;;16.60;99.90;;;17.29;100.00;98097.91;5183838;28;20194;-61
2021/07/08 02:24:13;;;;;;;4.65;4.25;;;16.60;99.90;;;17.18;99.79;98096.66;5181242;28;20198;-61
2021/07/08 02:26:46;;;;;;;4.60;4.20;;;16.60;99.90;;;17.20;99.89;98098.47;5183031;28;20617;-61
2021/07/08 02:29:22;;;;;;;4.55;4.15;;;16.50;99.90;;;17.15;100.00;98099.13;5183956;28;20337;-61
2021/07/08 02:31:55;;;;;;;4.57;4.20;;;16.50;99.90;;;17.12;100.00;98107.66;5183499;28;20204;-61
2021/07/08 02:34:28;;;;;;;4.05;3.75;;;16.60;99.90;;;17.10;100.00;98110.16;5183810;28;20195;-61
2021/07/08 02:37:01;;;;;;;4.53;4.22;;;16.60;99.90;;;17.10;100.00;98102.41;5182916;28;20206;-61
2021/07/08 02:39:36;;;;;;;4.70;4.40;;;16.60;99.90;;;17.18;100.00;98109.56;5184554;28;20222;-61
2021/07/08 02:42:09;;;;;;;4.93;4.53;;;16.60;99.90;;;17.22;100.00;98101.97;5176117;28;20293;-60
2021/07/08 02:44:42;;;;;;;4.53;4.22;;;16.70;99.90;;;17.22;100.00;98101.97;5182849;28;20667;-61
2021/07/08 02:47:15;;;;;;;5.10;4.80;;;16.60;99.90;;;17.25;100.00;98096.91;5176116;28;20195;-61
2021/07/08 02:49:48;;;;;;;5.07;4.68;;;16.70;99.90;;;17.28;100.00;98097.03;5183447;28;20237;-61
2021/07/08 02:52:21;;;;;;;4.45;4.15;;;16.70;99.90;;;17.29;100.00;98103.06;5184083;28;20579;-61
2021/07/08 02:54:56;;;;;;;5.22;4.72;;;16.70;99.90;;;17.25;100.00;98102.06;5183354;28;20209;-61
2021/07/08 02:57:29;;;;;;;4.88;4.47;;;16.60;99.90;;;17.28;100.00;98098.72;5176185;28;20190;-61
2021/07/08 03:00:02;;;;;;;5.53;5.13;;;16.60;99.90;;;17.24;100.00;98100.31;5183132;28;20215;-61
2021/07/08 03:02:35;;;;;;;5.93;5.53;;;16.60;99.90;;;17.19;100.00;98100.97;5187111;28;20658;-61
2021/07/08 03:05:10;;;;;;;5.72;5.22;;;16.60;99.90;;;17.15;100.00;98110.34;5187077;28;20191;-60
2021/07/08 03:07:43;;;;;;;5.88;5.30;;;16.60;99.90;;;17.16;100.00;98121.53;5186764;28;20202;-61
2021/07/08 03:10:20;;;;;;;5.82;5.40;;;16.60;99.90;;;17.19;100.00;98143.19;5187135;28;20219;-60
2021/07/08 03:12:55;;;;;;;5.93;5.53;;;16.60;99.90;;;17.22;100.00;98153.63;5187660;28;20222;-60
2021/07/08 03:15:28;;;;;;;6.88;6.35;;;16.70;99.90;;;17.32;100.00;98160.00;5186396;28;20669;-61
2021/07/08 03:18:02;;;;;;;5.95;4.97;;;16.80;99.90;;;17.36;100.00;98167.03;5186361;28;20195;-60
2021/07/08 03:20:35;;;;;;;5.60;5.10;;;16.80;99.90;;;17.35;100.00;98170.47;5187116;28;20302;-61
2021/07/08 03:23:08;;;;;;;6.05;5.47;;;16.80;99.90;;;17.36;100.00;98184.25;5187318;28;20233;-61
2021/07/08 03:25:42;;;;;;;5.35;4.85;;;16.80;99.90;;;17.37;100.00;98183.41;5186997;28;20229;-58
2021/07/08 03:28:16;;;;;;;5.70;5.30;;;16.80;99.90;;;17.40;100.00;98175.78;5186174;28;20218;-61
2021/07/08 03:30:49;;;;;;;5.97;5.38;;;16.80;99.90;;;17.42;100.00;98166.38;5177717;28;20194;-61
2021/07/08 03:33:22;;;;;;;5.90;5.47;;;16.80;99.90;;;17.39;100.00;98161.09;5176330;28;20581;-61
2021/07/08 03:35:55;;;;;;;5.45;5.00;;;16.80;99.90;;;17.32;100.00;98165.19;5186030;28;20204;-61
2021/07/08 03:38:28;;;;;;;6.13;5.63;;;16.70;99.90;;;17.32;100.00;98167.78;5186741;28;20272;-60
2021/07/08 03:41:02;;;;;;;7.13;6.53;;;16.70;99.90;;;17.33;100.00;98183.31;5185960;28;20194;-61
2021/07/08 03:43:35;;;;;;;6.07;5.50;;;16.80;99.90;;;17.36;100.00;98185.13;5185149;28;20658;-61
2021/07/08 03:46:08;;;;;;;5.63;5.13;;;16.80;99.90;;;17.36;100.00;98186.84;5186103;28;20195;-61
2021/07/08 03:48:42;;;;;;;5.93;5.45;;;16.80;99.90;;;17.32;100.00;98188.44;5186759;28;20265;-61
2021/07/08 03:51:15;;;;;;;5.75;5.30;;;16.70;99.90;;;17.25;100.00;98189.03;5185992;28;20203;-60
2021/07/08 03:53:48;;;;;;;6.78;5.75;;;16.70;99.90;;;17.25;100.00;98201.94;5186148;28;20226;-60
2021/07/08 03:56:22;;;;;;;5.65;5.22;;;16.60;99.90;;;17.25;100.00;98225.19;5186128;28;20194;-61
2021/07/08 03:58:55;;;;;;;5.85;5.35;;;16.60;99.90;;;17.26;100.00;98227.84;5186023;28;20589;-60
2021/07/08 04:01:28;;;;;;;6.30;5.70;;;16.70;99.90;;;17.27;100.00;98229.59;5182439;28;20634;-59
2021/07/08 04:04:01;;;;;;;6.32;5.72;;;16.70;99.90;;;17.28;100.00;98233.06;5180284;28;20584;-60
2021/07/08 04:06:35;;;;;;;5.78;5.28;;;16.70;99.90;;;17.34;100.00;98230.72;5172019;28;20205;-60
2021/07/08 04:09:08;;;;;;;5.72;5.22;;;16.80;99.90;;;17.39;100.00;98223.13;5183027;28;20215;-59
2021/07/08 04:11:42;;;;;;;6.07;5.53;;;16.70;99.90;;;17.41;100.00;98218.91;5179551;28;20199;-60
2021/07/08 04:14:15;;;;;;;5.63;5.30;;;16.80;99.90;;;17.46;100.00;98220.81;5182796;28;20218;-61
2021/07/08 04:16:49;;;;;;;6.70;6.10;;;16.80;99.90;;;17.47;100.00;98219.13;5181741;28;20578;-60
2021/07/08 04:19:22;;;;;;;6.32;5.82;;;16.90;99.90;;;17.43;100.00;98222.44;5185259;28;20218;-60
2021/07/08 04:21:55;;;;;;;5.80;5.32;;;16.80;99.90;;;17.41;100.00;98209.44;5185610;28;20555;-60
2021/07/08 04:24:28;;;;;;;6.50;5.70;;;16.80;99.90;;;17.40;100.00;98215.44;5184777;28;20571;-61
2021/07/08 04:27:03;;;;;;;5.22;4.75;;;16.80;99.90;;;17.42;100.00;98218.94;5181769;28;20677;-60
2021/07/08 04:29:36;;;;;;;5.43;5.03;;;16.80;99.90;;;17.44;100.00;98214.72;5179601;28;20234;-60
2021/07/08 04:32:09;;;;;;;5.47;5.15;;;16.80;99.90;;;17.45;100.00;98203.53;5181087;28;20201;-59
2021/07/08 04:34:42;;;;;;;5.95;5.50;;;16.80;99.90;;;17.49;100.00;98192.50;5185264;28;20465;-60
2021/07/08 04:37:15;;;;;;;5.28;4.90;;;16.80;99.90;;;17.50;100.00;98202.00;5185219;28;20695;-61
2021/07/08 04:39:48;;;;;;;5.40;5.00;;;16.80;99.90;;;17.54;100.00;98209.06;5182732;28;20232;-61
2021/07/08 04:42:23;;;;;;;5.20;4.90;;;16.80;99.90;;;17.61;100.00;98214.44;5185840;28;20201;-61
2021/07/08 04:44:56;;;;;;;5.50;5.10;;;16.90;99.90;;;17.64;100.00;98210.25;5185101;28;20693;-61
2021/07/08 04:47:29;;;;;;;5.30;4.90;;;16.90;99.90;;;17.70;100.00;98207.00;5180342;28;20263;-61
2021/07/08 04:50:03;;;;;;;5.13;4.75;;;17.00;99.90;;;17.75;100.00;98208.91;5183840;28;20309;-60
2021/07/08 04:52:37;;;;;;;5.78;5.25;;;17.00;99.90;;;17.72;100.00;98195.00;5181042;28;20191;-60
2021/07/08 04:55:12;;;;;;;5.40;4.90;;;17.00;99.90;;;17.76;100.00;98199.44;5184891;28;20337;-61
2021/07/08 04:57:47;;;;;;;5.95;5.47;;;17.00;99.90;;;17.78;100.00;98185.78;5184258;28;20202;-61
2021/07/08 05:00:21;;;;;;;5.25;4.85;;;17.10;99.90;;;17.86;100.00;98188.63;5185878;28;20224;-60
2021/07/08 05:02:55;;;;;;;6.60;6.00;;;17.10;99.90;;;17.92;100.00;98181.06;5179259;28;20298;-60
2021/07/08 05:05:28;;;;;;;5.97;5.47;;;17.20;99.90;;;17.95;100.00;98180.28;5184307;28;20187;-61
2021/07/08 05:08:01;;;;;;;6.45;5.90;;;17.20;99.90;;;17.91;99.37;98175.84;5184246;28;20201;-61
2021/07/08 05:10:34;;;;;;;6.22;5.65;;;17.10;99.90;;;17.90;99.08;98172.38;5185125;28;20201;-61
2021/07/08 05:13:10;;;;;;;6.20;5.80;;;17.10;99.90;;;17.88;98.19;98168.84;5184288;28;20199;-60
2021/07/08 05:15:43;;;;;;;6.40;5.78;;;17.10;99.90;;;18.02;96.87;98157.25;5183448;28;20214;-61
2021/07/08 05:18:16;;;;;;;6.07;5.57;;;17.10;99.90;;;17.86;97.88;98144.66;5180175;28;20222;-61
2021/07/08 05:20:51;;;;;;;6.57;5.25;;;17.10;99.90;;;17.79;98.06;98140.09;5179267;28;20237;-63
2021/07/08 05:23:26;;;;;;;6.03;5.43;;;17.00;99.90;;;17.82;97.99;98141.91;5183300;28;20190;-63
2021/07/08 05:25:59;;;;;;;8.80;6.10;;;17.00;99.90;;;17.82;98.32;98149.66;5184222;28;20212;-64
2021/07/08 05:28:35;;;;;;;6.68;6.10;;;17.00;99.90;;;17.85;97.34;98158.41;5184323;28;20248;-63
2021/07/08 05:31:08;;;;;;;6.65;6.15;;;17.10;99.90;;;17.74;98.39;98163.22;5184633;28;20198;-64
2021/07/08 05:33:41;;;;;;;6.60;6.05;;;17.10;99.90;;;17.79;97.46;98155.63;5183661;28;20205;-63
2021/07/08 05:36:14;;;;;;;6.55;6.05;;;17.10;99.90;;;17.75;98.65;98156.31;5176745;28;20202;-60
2021/07/08 05:38:47;;;;;;;6.47;5.97;;;17.10;99.90;;;17.68;98.69;98154.34;5178899;28;20222;-59
2021/07/08 05:41:20;;;;;;;7.00;6.50;;;17.00;99.90;;;17.63;98.79;98159.38;5184089;28;20205;-60
2021/07/08 05:43:55;;;;;;;8.07;7.35;;;17.00;99.90;;;17.64;99.35;98163.72;5184600;28;20187;-58
2021/07/08 05:46:28;;;;;;;6.93;6.25;;;17.00;99.90;;;17.66;99.62;98171.53;5181878;28;20194;-60
2021/07/08 05:49:01;;;;;;;7.43;6.82;;;17.00;99.90;;;17.65;99.41;98175.78;5176889;28;20628;-60
2021/07/08 05:51:34;;;;;;;7.50;6.80;;;17.00;99.90;;;17.74;99.46;98188.16;5182509;28;20701;-58
2021/07/08 05:54:07;;;;;;;7.65;6.95;;;17.00;99.90;;;17.77;99.75;98188.28;5183840;28;20222;-60
2021/07/08 05:56:40;;;;;;;7.07;6.47;;;17.10;99.90;;;17.78;99.52;98183.19;5183299;28;20198;-60
2021/07/08 05:59:14;;;;;;;6.80;6.20;;;17.10;99.90;;;17.87;99.42;98185.19;5184471;28;20598;-59
2021/07/08 06:01:47;;;;;;;6.85;6.35;;;17.10;99.90;;;17.93;99.64;98185.41;5184454;28;20204;-59
2021/07/08 06:04:20;;;;;;;8.05;7.45;;;17.30;99.90;;;18.01;99.02;98196.88;5184407;28;20195;-58
2021/07/08 06:06:53;;;;;;;6.78;6.28;;;17.30;99.90;;;18.09;99.29;98209.22;5175789;28;20191;-60
2021/07/08 06:09:27;;;;;;;7.82;7.20;;;17.40;99.90;;;18.11;98.78;98215.28;5179672;28;20215;-59
2021/07/08 06:12:00;;;;;;;7.43;6.82;;;17.40;99.90;;;18.19;98.83;98224.19;5176822;28;20194;-60
2021/07/08 06:14:34;;;;;;;6.65;6.15;;;17.50;99.90;;;18.24;99.10;98240.75;5183563;28;20244;-59
2021/07/08 06:17:08;;;;;;;6.97;6.47;;;17.50;99.90;;;18.32;99.32;98244.47;5184269;28;20202;-59
2021/07/08 06:19:41;;;;;;;8.10;7.40;;;17.60;99.90;;;18.33;98.34;98260.88;5184354;28;20690;-60
2021/07/08 06:22:14;;;;;;;7.68;7.10;;;17.60;99.90;;;18.32;98.43;98252.25;5184512;28;20195;-59
2021/07/08 06:24:47;;;;;;;6.57;5.95;;;17.60;99.90;;;18.35;98.15;98270.47;5181481;28;20199;-60
2021/07/08 06:27:20;;;;;;;7.90;7.13;;;17.60;99.90;;;18.38;97.59;98269.69;5183671;28;20203;-59
2021/07/08 06:29:54;;;;;;;6.90;6.22;;;17.60;99.90;;;18.44;97.70;98269.88;5183894;28;20234;-60
2021/07/08 06:32:27;;;;;;;7.32;6.72;;;17.70;99.90;;;18.45;97.36;98277.69;5184061;28;20194;-57
2021/07/08 06:35:01;;;;;;;6.63;6.03;;;17.70;99.90;;;18.50;97.49;98282.16;5183664;28;20219;-58
2021/07/08 06:37:38;;;;;;;7.32;6.72;;;17.70;99.90;;;18.60;97.23;98282.50;5179477;28;20655;-60
2021/07/08 06:40:15;;;;;;;8.10;7.50;;;17.80;99.90;;;18.62;96.62;98285.13;5188342;28;20582;-60
2021/07/08 06:42:48;;;;;;;6.78;6.22;;;17.80;99.90;;;18.68;96.07;98270.69;5187795;28;20198;-58
2021/07/08 06:45:23;;;;;;;7.03;6.47;;;17.90;99.90;;;18.72;95.74;98255.25;5181443;28;20316;-60
2021/07/08 06:48:02;;;;;;;6.57;5.95;;;17.90;99.90;;;18.79;95.81;98257.19;5178056;28;20194;-58
2021/07/08 06:50:37;;;;;;;7.00;6.30;;;18.00;99.90;;;18.84;96.04;98259.09;5188474;28;20724;-58
2021/07/08 06:53:11;;;;;;;5.97;5.47;;;18.10;99.90;;;18.86;96.00;98249.69;5179601;28;20200;-61
2021/07/08 06:55:44;;;;;;;5.72;5.22;;;18.10;99.90;;;18.97;95.96;98255.19;5187737;28;20218;-61
2021/07/08 06:58:17;;;;;;;6.35;5.85;;;18.20;99.90;;;19.07;95.96;98259.81;5186888;28;20220;-59
2021/07/08 07:00:51;;;;;;;6.32;5.82;;;18.30;99.90;;;19.13;95.51;98259.09;5187096;28;20198;-61
2021/07/08 07:03:24;;;;;;;6.32;5.80;;;18.30;99.90;;;19.22;95.52;98256.78;5187899;28;20200;-60
2021/07/08 07:05:57;;;;;;;6.47;5.55;;;18.40;99.90;;;19.29;94.99;98255.28;5186777;28;20191;-60
2021/07/08 07:08:30;;;;;;;6.05;5.65;;;18.50;99.90;;;19.39;94.60;98256.41;5186873;28;20254;-59
2021/07/08 07:11:03;;;;;;;5.90;5.40;;;18.60;99.90;;;19.45;93.46;98261.75;5182348;28;20201;-60
2021/07/08 07:13:36;;;;;;;5.68;5.28;;;18.60;99.90;;;19.50;93.00;98261.06;5183592;28;20663;-61
2021/07/08 07:16:11;;;;;;;5.93;5.43;;;18.60;99.90;;;19.51;91.87;98255.03;5185608;28;20568;-60
2021/07/08 07:18:44;;;;;;;5.80;5.30;;;18.70;99.90;;;19.44;91.79;98265.19;5187230;28;20302;-60
2021/07/08 07:21:17;;;;;;;5.47;5.05;;;18.60;99.90;;;19.46;92.09;98260.91;5186965;28;20408;-61
2021/07/08 07:23:50;;;;;;;5.97;5.50;;;18.60;99.90;;;19.44;90.85;98244.44;5180872;28;20198;-61
2021/07/08 07:26:23;;;;;;;5.30;4.90;;;18.60;99.90;;;19.43;90.80;98240.09;5186387;28;20199;-59
2021/07/08 07:28:56;;;;;;;5.07;4.78;;;18.60;99.90;;;19.44;90.55;98234.09;5186349;28;20228;-60
2021/07/08 07:31:31;;;;;;;5.30;4.90;;;18.60;99.90;;;19.46;90.38;98237.56;5186833;28;20220;-60
2021/07/08 07:34:04;;;;;;;5.63;5.03;;;18.60;99.90;;;19.51;90.09;98242.06;5186706;28;20198;-61
2021/07/08 07:36:37;;;;;;;4.65;4.35;;;18.70;99.90;;;19.57;90.36;98251.72;5178780;28;20219;-60
2021/07/08 07:39:10;;;;;;;4.88;4.47;;;18.70;99.90;;;19.66;90.45;98245.94;5183830;28;20770;-59
2021/07/08 07:41:43;;;;;;;4.90;4.50;;;18.80;99.90;;;19.73;90.33;98242.69;5180502;28;20199;-62
2021/07/08 07:44:17;;;;;;;5.55;5.05;;;18.90;99.90;;;19.76;87.70;98247.97;5183905;28;20249;-60
2021/07/08 07:46:51;;;;;;;6.28;5.75;;;18.90;99.90;;;19.74;88.13;98239.25;5184766;28;20197;-59
2021/07/08 07:49:25;;;;;;;6.38;5.85;;;18.90;99.90;;;19.80;88.30;98235.13;5186650;28;20214;-60
2021/07/08 07:51:58;;;;;;;6.05;5.55;;;18.90;99.90;;;19.88;87.83;98227.53;5186574;28;20257;-60
2021/07/08 07:54:31;;;;;;;5.95;5.55;;;18.90;99.90;;;19.74;88.70;98227.19;5182883;28;20289;-58
2021/07/08 07:57:05;;;;;;;5.75;5.13;;;18.90;99.90;;;19.71;88.09;98226.19;5185359;28;20225;-58
2021/07/08 07:59:39;;;;;;;6.20;5.60;;;18.90;99.90;;;19.69;88.15;98231.38;5179119;28;20214;-61
2021/07/08 08:02:14;;;;;;;5.85;5.35;;;18.90;99.90;;;19.64;88.54;98232.91;5186151;28;20205;-60
2021/07/08 08:04:54;;;;;;;5.38;4.97;;;18.90;99.90;;;19.75;86.95;98234.13;5185968;28;20193;-60
2021/07/08 08:10:20;;;;;;;5.00;4.60;;;18.80;99.90;;;19.57;85.55;98237.06;5181645;28;20640;-61
2021/07/08 08:12:53;;;;;;;4.82;4.45;;;18.80;99.90;;;19.74;85.91;98240.16;5172351;28;20222;-61
2021/07/08 08:15:27;;;;;;;5.22;4.72;;;18.90;99.90;;;19.76;87.00;98238.47;5175350;28;20590;-61
2021/07/08 08:18:02;;;;;;;4.95;4.55;;;19.00;99.90;;;19.88;86.55;98239.63;5176389;28;20781;-61
2021/07/08 08:20:36;;;;;;;4.40;4.10;;;19.10;99.90;;;20.02;84.43;98230.47;5184107;28;20205;-60
2021/07/08 08:23:09;;;;;;;5.53;4.35;;;19.10;99.90;;;20.09;84.97;98253.16;5183393;28;20217;-61
2021/07/08 08:25:43;;;;;;;4.30;4.00;;;19.20;99.90;;;20.16;83.64;98260.25;5183115;28;20256;-61
2021/07/08 08:28:16;;;;;;;4.78;3.88;;;19.30;99.90;;;20.23;84.41;98244.03;5172406;28;20218;-61
2021/07/08 08:30:49;;;;;;;4.10;3.80;;;19.30;99.90;;;20.20;81.48;98243.94;5181182;28;20206;-61
2021/07/08 08:33:24;;;;;;;4.05;3.75;;;19.30;99.90;;;20.24;81.78;98250.94;5182922;28;20669;-61
2021/07/08 08:35:57;;;;;;;3.97;3.58;;;19.30;99.90;;;20.33;80.09;98247.72;5176801;28;20217;-61
2021/07/08 08:38:30;;;;;;;4.10;3.80;;;19.40;99.90;;;20.22;81.78;98226.66;5175626;28;20241;-60
2021/07/08 08:41:03;;;;;;;3.58;3.28;;;19.40;99.90;;;20.19;82.22;98217.94;5183661;28;20198;-61
2021/07/08 08:43:36;;;;;;;4.13;3.83;;;19.30;99.90;;;20.27;81.59;98213.81;5181603;28;20213;-61
2021/07/08 08:46:12;;;;;;;4.53;4.13;;;19.30;99.90;;;20.36;80.78;98210.56;5179326;28;20660;-60
2021/07/08 08:48:47;;;;;;;3.90;3.63;;;19.40;99.90;;;20.40;80.54;98223.66;5172491;28;20481;-59
2021/07/08 08:51:20;;;;;;;4.47;4.18;;;19.50;99.90;;;20.27;81.81;98211.22;5183721;28;20202;-61
2021/07/08 08:53:53;;;;;;;4.40;4.10;;;19.40;99.90;;;20.30;83.30;98210.41;5183319;28;20199;-62
2021/07/08 08:56:27;;;;;;;4.32;3.92;;;19.50;99.90;;;20.45;83.42;98209.03;5181925;28;20218;-60
2021/07/08 08:59:00;;;;;;;4.50;4.20;;;19.60;99.90;;;20.66;83.12;98216.50;5182815;28;20233;-61
2021/07/08 09:01:35;;;;;;;3.95;3.40;;;19.80;99.90;;;20.83;82.56;98218.59;5180516;28;20206;-59
2021/07/08 09:04:33;;;;;;;3.92;3.58;;;20.00;99.90;;;21.00;81.53;98219.84;5182459;28;20249;-61
2021/07/08 09:07:24;;;;;;;3.53;3.22;;;20.10;99.90;;;21.20;79.65;98224.59;5182087;28;20205;-60
2021/07/08 09:09:59;;;;;;;4.07;3.60;;;20.30;99.90;;;21.27;77.11;98226.47;5182206;28;20602;-61
2021/07/08 09:12:32;;;;;;;3.60;3.33;;;20.30;99.90;;;21.23;76.56;98232.44;5182936;28;20221;-59
2021/07/08 09:15:17;;;;;;;3.65;3.35;;;20.20;99.90;;;21.20;78.47;98234.97;5177366;28;20665;-61
2021/07/08 09:17:50;;;;;;;3.58;3.28;;;20.20;99.90;;;21.34;77.63;98256.94;5179232;28;20641;-61
2021/07/08 09:20:25;;;;;;;3.33;3.10;;;20.30;99.90;;;21.48;77.14;98255.53;5183047;28;20286;-60
2021/07/08 09:23:14;;;;;;;3.28;3.08;;;20.40;99.90;;;21.56;75.87;98267.00;5182993;28;20207;-60
2021/07/08 09:25:48;;;;;;;3.38;3.17;;;20.50;99.90;;;21.54;75.75;98273.88;5171060;28;20187;-60
2021/07/08 09:28:25;;;;;;;3.00;2.80;;;20.50;99.90;;;21.58;76.08;98265.31;5182417;28;20222;-58
2021/07/08 09:31:03;;;;;;;3.03;2.80;;;20.50;99.90;;;21.66;74.56;98264.56;5182825;28;20204;-59
2021/07/08 09:33:41;;;;;;;2.63;2.53;;;20.50;99.90;;;21.67;73.09;98271.53;5178060;28;20667;-63
2021/07/08 09:36:17;;;;;;;3.15;2.88;;;20.60;99.90;;;21.74;73.27;98260.38;5177163;28;20219;-62
2021/07/08 09:38:58;;;;;;;2.97;2.55;;;20.70;99.90;;;21.78;71.83;98263.09;5178060;28;20215;-60
2021/07/08 09:41:31;;;;;;;3.05;2.75;;;20.80;99.90;;;21.70;71.60;98250.78;5182669;28;20208;-60
2021/07/08 09:44:21;;;;;;;2.53;2.40;;;20.70;99.90;;;21.73;72.42;98249.09;5182197;28;20213;-62
2021/07/08 09:46:57;;;;;;;2.38;2.17;;;20.70;99.90;;;21.73;71.10;98240.44;5182402;28;20201;-61
2021/07/08 09:49:30;;;;;;;2.65;2.40;;;20.70;99.90;;;21.83;71.28;98244.94;5183365;28;20254;-61
2021/07/08 09:52:11;;;;;;;2.28;2.17;;;20.70;99.90;;;21.92;71.57;98241.63;5183199;28;20578;-61
2021/07/08 09:57:48;;;;;;;2.50;2.40;;;21.00;99.90;;;22.23;70.11;98230.97;5177113;28;20229;-61
2021/07/08 10:00:34;;;;;;;2.42;2.22;;;21.20;99.90;;;22.35;69.78;98214.66;5181944;28;20722;-61
2021/07/08 10:03:08;;;;;;;2.10;1.90;;;21.20;99.90;;;22.46;70.25;98223.53;5176688;28;20573;-61
2021/07/08 10:05:42;;;;;;;2.10;2.00;;;21.30;99.90;;;22.58;69.62;98222.84;5179194;28;20568;-61
2021/07/08 10:08:21;;;;;;;2.25;2.15;;;21.40;99.90;;;22.54;68.79;98231.44;5186522;28;20221;-61
2021/07/08 10:10:54;;;;;;;2.35;2.15;;;21.40;99.90;;;22.58;69.30;98237.59;5183292;28;20208;-61
2021/07/08 10:13:28;;;;;;;2.15;2.05;;;21.40;99.90;;;22.64;68.21;98232.47;5185379;28;20577;-61
2021/07/08 10:16:05;;;;;;;2.15;1.95;;;21.30;99.90;;;22.67;67.08;98227.31;5183998;28;20190;-62
2021/07/08 10:18:42;;;;;;;2.40;2.20;;;21.30;99.90;;;22.66;67.86;98220.31;5186803;28;20750;-63
2021/07/08 10:21:19;;;;;;;1.77;1.67;;;21.40;99.90;;;22.71;67.62;98214.31;5185538;28;20194;-61
2021/07/08 10:23:53;;;;;;;1.83;1.73;;;21.50;99.90;;;22.71;66.65;98218.66;5186530;28;20441;-61
2021/07/08 10:26:26;;;;;;;2.03;1.80;;;21.60;99.90;;;22.78;65.84;98222.22;5185412;28;20577;-61
2021/07/08 10:29:01;;;;;;;1.58;1.55;;;21.60;99.90;;;22.88;65.40;98222.38;5186055;28;20230;-61
2021/07/08 10:31:34;;;;;;;1.65;1.55;;;21.70;99.90;;;22.92;64.05;98234.63;5182396;28;20202;-61
2021/07/08 10:34:10;;;;;;;1.70;1.60;;;21.70;99.90;;;22.99;63.81;98224.31;5185141;28;20194;-61
2021/07/08 10:36:45;;;;;;;1.67;1.60;;;21.80;99.90;;;23.06;63.47;98221.78;5185839;28;20304;-61
2021/07/08 10:39:21;;;;;;;1.33;1.33;;;21.90;99.90;;;23.16;61.95;98233.25;5185902;28;20222;-62
2021/07/08 10:41:57;;;;;;;1.65;1.40;;;21.90;99.90;;;23.33;60.62;98241.28;5185814;28;20233;-63
2021/07/08 10:44:47;;;;;;;1.60;1.50;;;21.90;99.90;;;23.31;60.53;98245.59;5185277;28;20231;-62
2021/07/08 10:47:37;;;;;;;1.35;1.35;;;22.00;99.90;;;23.30;61.29;98242.13;5181984;28;20591;-62
2021/07/08 10:50:42;;;;;;;1.52;1.42;;;21.90;99.90;;;23.30;61.43;98247.34;5183847;28;20686;-62
2021/07/08 10:53:24;;;;;;;1.77;1.67;;;21.80;99.90;;;23.30;61.29;98247.34;5182543;28;20194;-62